<?xml version='1.0' encoding='UTF-8'?><gpx version="1.1" creator="JPX - https://github.com/jenetics/jpx" xmlns="http://www.topografix.com/GPX/1/1"><trk><trkseg><trkpt lat="43.50481117260562" lon="10.620558884072993"><ele>304.0</ele><time>2026-04-18T06:34:26Z</time></trkpt><trkpt lat="43.50478585078246" lon="10.620474125284437"><ele>304.0</ele><time>2026-04-18T06:45:51Z</time></trkpt><trkpt lat="43.50474649438095" lon="10.620396930334914"><ele>304.0</ele><time>2026-04-18T06:45:55Z</time></trkpt><trkpt lat="43.504695176539514" lon="10.620336966859703"><ele>304.0</ele><time>2026-04-18T06:46:00Z</time></trkpt><trkpt lat="43.50464878728632" lon="10.620272797569628"><ele>304.0</ele><time>2026-04-18T06:47:54Z</time></trkpt><trkpt lat="43.504659298613305" lon="10.620184559895153"><ele>304.0</ele><time>2026-04-18T06:49:36Z</time></trkpt><trkpt lat="43.50469883329294" lon="10.62011686362996"><ele>304.0</ele><time>2026-04-18T06:50:23.999Z</time></trkpt><trkpt lat="43.504761455263306" lon="10.62006495102266"><ele>305.0</ele><time>2026-04-18T06:50:24.999Z</time></trkpt><trkpt lat="43.50484528519805" lon="10.619980672391966"><ele>306.0</ele><time>2026-04-18T06:50:26.999Z</time></trkpt><trkpt lat="43.504934856504896" lon="10.619909568379418"><ele>307.0</ele><time>2026-04-18T06:50:28.999Z</time></trkpt><trkpt lat="43.50502581824019" lon="10.61984031855949"><ele>308.0</ele><time>2026-04-18T06:50:30.999Z</time></trkpt><trkpt lat="43.505074627299614" lon="10.619726979703218"><ele>309.0</ele><time>2026-04-18T06:50:32.999Z</time></trkpt><trkpt lat="43.505109463175714" lon="10.619597993185462"><ele>309.59999999999997</ele><time>2026-04-18T06:50:34.999Z</time></trkpt><trkpt lat="43.5051567589391" lon="10.61946892793586"><ele>310.2</ele><time>2026-04-18T06:50:36.999Z</time></trkpt><trkpt lat="43.50521175563332" lon="10.619366108848105"><ele>310.79999999999995</ele><time>2026-04-18T06:50:38.999Z</time></trkpt><trkpt lat="43.50529485259858" lon="10.619337324267029"><ele>311.4</ele><time>2026-04-18T06:50:40.999Z</time></trkpt><trkpt lat="43.50539792913844" lon="10.619382019655989"><ele>312.0</ele><time>2026-04-18T06:50:43Z</time></trkpt><trkpt lat="43.5054869059445" lon="10.619414241149023"><ele>309.6</ele><time>2026-04-18T06:50:45Z</time></trkpt><trkpt lat="43.50557412775528" lon="10.619447712902723"><ele>307.2</ele><time>2026-04-18T06:50:47Z</time></trkpt><trkpt lat="43.50567073502093" lon="10.619479765988395"><ele>304.8</ele><time>2026-04-18T06:50:49Z</time></trkpt><trkpt lat="43.505773490022506" lon="10.619487840558731"><ele>302.4</ele><time>2026-04-18T06:50:51Z</time></trkpt><trkpt lat="43.50587350849908" lon="10.619467489889464"><ele>300.0</ele><time>2026-04-18T06:50:53Z</time></trkpt><trkpt lat="43.50596560755914" lon="10.619410385572"><ele>300.0</ele><time>2026-04-18T06:50:55Z</time></trkpt><trkpt lat="43.506069781133924" lon="10.619382064228756"><ele>300.0</ele><time>2026-04-18T06:50:57Z</time></trkpt><trkpt lat="43.506166485834186" lon="10.619345995400574"><ele>300.0</ele><time>2026-04-18T06:50:59Z</time></trkpt><trkpt lat="43.50626872817531" lon="10.619342378416398"><ele>300.0</ele><time>2026-04-18T06:51:01Z</time></trkpt><trkpt lat="43.50635758966647" lon="10.61934090385368"><ele>300.0</ele><time>2026-04-18T06:51:03Z</time></trkpt><trkpt lat="43.5064597076727" lon="10.61935100145014"><ele>297.8</ele><time>2026-04-18T06:51:05Z</time></trkpt><trkpt lat="43.50656121220182" lon="10.619357175062179"><ele>295.6</ele><time>2026-04-18T06:51:07Z</time></trkpt><trkpt lat="43.50666485978862" lon="10.61932700595062"><ele>293.4</ele><time>2026-04-18T06:51:09Z</time></trkpt><trkpt lat="43.5067567151053" lon="10.61928849572865"><ele>291.2</ele><time>2026-04-18T06:51:11Z</time></trkpt><trkpt lat="43.50684141508154" lon="10.619250231585907"><ele>289.0</ele><time>2026-04-18T06:51:13Z</time></trkpt><trkpt lat="43.50693133754943" lon="10.61917647983091"><ele>289.0</ele><time>2026-04-18T06:51:15Z</time></trkpt><trkpt lat="43.507006472041844" lon="10.61906983197421"><ele>289.0</ele><time>2026-04-18T06:51:17Z</time></trkpt><trkpt lat="43.507084626658056" lon="10.618965307163904"><ele>289.0</ele><time>2026-04-18T06:51:19Z</time></trkpt><trkpt lat="43.507172853594945" lon="10.618887607067016"><ele>289.0</ele><time>2026-04-18T06:51:21Z</time></trkpt><trkpt lat="43.50726942640477" lon="10.618824124465213"><ele>289.0</ele><time>2026-04-18T06:51:23Z</time></trkpt><trkpt lat="43.507373233168586" lon="10.618792908732223"><ele>288.42857142857144</ele><time>2026-04-18T06:51:25Z</time></trkpt><trkpt lat="43.50744596823438" lon="10.618768481387002"><ele>287.85714285714283</ele><time>2026-04-18T06:51:26Z</time></trkpt><trkpt lat="43.50751074895241" lon="10.61871423340488"><ele>287.2857142857143</ele><time>2026-04-18T06:51:27Z</time></trkpt><trkpt lat="43.5075736451179" lon="10.618679146065157"><ele>286.7142857142857</ele><time>2026-04-18T06:51:28Z</time></trkpt><trkpt lat="43.507633704907576" lon="10.61862538879162"><ele>286.14285714285717</ele><time>2026-04-18T06:51:29Z</time></trkpt><trkpt lat="43.50770176975654" lon="10.618547605934213"><ele>285.57142857142856</ele><time>2026-04-18T06:51:30Z</time></trkpt><trkpt lat="43.50776308524601" lon="10.6184991421277"><ele>285.0</ele><time>2026-04-18T06:51:31Z</time></trkpt><trkpt lat="43.507809456189555" lon="10.618437153924608"><ele>285.0</ele><time>2026-04-18T06:51:32Z</time></trkpt><trkpt lat="43.50785619494511" lon="10.618363314107281"><ele>285.0</ele><time>2026-04-18T06:51:33Z</time></trkpt><trkpt lat="43.50789559803678" lon="10.618294188462654"><ele>285.0</ele><time>2026-04-18T06:51:34Z</time></trkpt><trkpt lat="43.50797218092814" lon="10.618144338897139"><ele>285.0</ele><time>2026-04-18T06:51:36Z</time></trkpt><trkpt lat="43.50799700503146" lon="10.618042607661703"><ele>285.0</ele><time>2026-04-18T06:51:37Z</time></trkpt><trkpt lat="43.50803761109947" lon="10.617955136120978"><ele>285.0</ele><time>2026-04-18T06:51:38Z</time></trkpt><trkpt lat="43.50806907577492" lon="10.617859359320311"><ele>285.6666666666667</ele><time>2026-04-18T06:51:39Z</time></trkpt><trkpt lat="43.50810295172385" lon="10.617768799198295"><ele>286.3333333333333</ele><time>2026-04-18T06:51:40Z</time></trkpt><trkpt lat="43.5081325007848" lon="10.6176787650552"><ele>287.0</ele><time>2026-04-18T06:51:41Z</time></trkpt><trkpt lat="43.508167256961855" lon="10.617594514699872"><ele>287.66666666666663</ele><time>2026-04-18T06:51:42Z</time></trkpt><trkpt lat="43.50819077100066" lon="10.617512050193334"><ele>288.3333333333333</ele><time>2026-04-18T06:51:43Z</time></trkpt><trkpt lat="43.50823417219542" lon="10.617390884891815"><ele>289.0</ele><time>2026-04-18T06:51:45Z</time></trkpt><trkpt lat="43.508278952764265" lon="10.617257108317075"><ele>289.0</ele><time>2026-04-18T06:51:47Z</time></trkpt><trkpt lat="43.50835237768702" lon="10.617149230951018"><ele>289.0</ele><time>2026-04-18T06:51:49Z</time></trkpt><trkpt lat="43.50841033180041" lon="10.6170522271736"><ele>289.0</ele><time>2026-04-18T06:51:51Z</time></trkpt><trkpt lat="43.508498085494374" lon="10.616919562631042"><ele>289.0</ele><time>2026-04-18T06:51:53Z</time></trkpt><trkpt lat="43.5085532853329" lon="10.616847495844166"><ele>289.0</ele><time>2026-04-18T06:51:54Z</time></trkpt><trkpt lat="43.50860418928516" lon="10.616760284347384"><ele>289.5</ele><time>2026-04-18T06:51:55Z</time></trkpt><trkpt lat="43.508668787731025" lon="10.61669482743205"><ele>290.0</ele><time>2026-04-18T06:51:56Z</time></trkpt><trkpt lat="43.50872663043858" lon="10.616631850322989"><ele>290.5</ele><time>2026-04-18T06:51:57Z</time></trkpt><trkpt lat="43.50877815658884" lon="10.616573019561159"><ele>291.0</ele><time>2026-04-18T06:51:58Z</time></trkpt><trkpt lat="43.508868238794314" lon="10.616462782946941"><ele>291.5</ele><time>2026-04-18T06:52:00Z</time></trkpt><trkpt lat="43.50894544411331" lon="10.616392885243096"><ele>292.0</ele><time>2026-04-18T06:52:02Z</time></trkpt><trkpt lat="43.50903525710621" lon="10.616391052813256"><ele>292.0</ele><time>2026-04-18T06:52:04.001Z</time></trkpt><trkpt lat="43.50908548645188" lon="10.616510476603386"><ele>292.0</ele><time>2026-04-18T06:52:05.001Z</time></trkpt><trkpt lat="43.50913169757255" lon="10.616621286505085"><ele>292.0</ele><time>2026-04-18T06:52:07.001Z</time></trkpt><trkpt lat="43.50918219821259" lon="10.616701459155061"><ele>292.0</ele><time>2026-04-18T06:52:09.001Z</time></trkpt><trkpt lat="43.50923884253293" lon="10.616805143963926"><ele>292.0</ele><time>2026-04-18T06:52:11.001Z</time></trkpt><trkpt lat="43.50927325677473" lon="10.616879260570954"><ele>292.0</ele><time>2026-04-18T06:52:12.001Z</time></trkpt><trkpt lat="43.50931407529711" lon="10.616966201633726"><ele>291.0</ele><time>2026-04-18T06:52:13.001Z</time></trkpt><trkpt lat="43.509369187166655" lon="10.617056172805569"><ele>290.0</ele><time>2026-04-18T06:52:14.001Z</time></trkpt><trkpt lat="43.50941325393018" lon="10.617142779231902"><ele>289.0</ele><time>2026-04-18T06:52:15.001Z</time></trkpt><trkpt lat="43.509455993610366" lon="10.617225336468133"><ele>288.0</ele><time>2026-04-18T06:52:16.001Z</time></trkpt><trkpt lat="43.50953536210569" lon="10.617364056559587"><ele>287.0</ele><time>2026-04-18T06:52:18.001Z</time></trkpt><trkpt lat="43.50960264383094" lon="10.617490200048273"><ele>286.83333333333337</ele><time>2026-04-18T06:52:20.001Z</time></trkpt><trkpt lat="43.509660286580846" lon="10.617608597319354"><ele>286.6666666666667</ele><time>2026-04-18T06:52:22.001Z</time></trkpt><trkpt lat="43.50970679294155" lon="10.617697023749818"><ele>286.5</ele><time>2026-04-18T06:52:24.001Z</time></trkpt><trkpt lat="43.509752637345976" lon="10.61778494543102"><ele>286.3333333333333</ele><time>2026-04-18T06:52:26.998Z</time></trkpt><trkpt lat="43.50979036048653" lon="10.617869635486922"><ele>286.16666666666663</ele><time>2026-04-18T06:52:51.999Z</time></trkpt><trkpt lat="43.50982333614093" lon="10.617950242131368"><ele>286.0</ele><time>2026-04-18T06:52:53.999Z</time></trkpt><trkpt lat="43.50986114816904" lon="10.618071756997583"><ele>285.40000000000003</ele><time>2026-04-18T06:55:00Z</time></trkpt><trkpt lat="43.50990632710901" lon="10.618202724057225"><ele>284.8</ele><time>2026-04-18T06:55:02Z</time></trkpt><trkpt lat="43.50995073703104" lon="10.618346823400097"><ele>284.20000000000005</ele><time>2026-04-18T06:55:04Z</time></trkpt><trkpt lat="43.510003845741714" lon="10.618498181489995"><ele>283.6</ele><time>2026-04-18T06:55:06Z</time></trkpt><trkpt lat="43.51004794793175" lon="10.618568057092729"><ele>283.0</ele><time>2026-04-18T06:55:07Z</time></trkpt><trkpt lat="43.51011036285435" lon="10.618613019816665"><ele>283.0</ele><time>2026-04-18T06:55:08Z</time></trkpt><trkpt lat="43.510188409614784" lon="10.618613382189263"><ele>283.0</ele><time>2026-04-18T06:55:09Z</time></trkpt><trkpt lat="43.51026099260946" lon="10.618579009467716"><ele>283.0</ele><time>2026-04-18T06:55:10Z</time></trkpt><trkpt lat="43.51032647769211" lon="10.618529844263264"><ele>283.0</ele><time>2026-04-18T06:55:11Z</time></trkpt><trkpt lat="43.51038408803206" lon="10.618473310664143"><ele>283.0</ele><time>2026-04-18T06:55:12Z</time></trkpt><trkpt lat="43.51044521691234" lon="10.6184149772112"><ele>283.0</ele><time>2026-04-18T06:55:13Z</time></trkpt><trkpt lat="43.51051162668442" lon="10.618360546705306"><ele>281.0</ele><time>2026-04-18T06:55:14Z</time></trkpt><trkpt lat="43.51058499723266" lon="10.618300624279854"><ele>279.0</ele><time>2026-04-18T06:55:15Z</time></trkpt><trkpt lat="43.510664216680425" lon="10.618242660361405"><ele>277.0</ele><time>2026-04-18T06:55:16Z</time></trkpt><trkpt lat="43.51074545756603" lon="10.618201887515209"><ele>275.0</ele><time>2026-04-18T06:55:17Z</time></trkpt><trkpt lat="43.51083342083872" lon="10.618191782519288"><ele>273.0</ele><time>2026-04-18T06:55:18Z</time></trkpt><trkpt lat="43.510935112912016" lon="10.618196827071365"><ele>273.0</ele><time>2026-04-18T06:55:19Z</time></trkpt><trkpt lat="43.51102418742938" lon="10.618209008491972"><ele>273.0</ele><time>2026-04-18T06:55:20Z</time></trkpt><trkpt lat="43.51112218692416" lon="10.61822646112464"><ele>273.0</ele><time>2026-04-18T06:55:21Z</time></trkpt><trkpt lat="43.5112247705755" lon="10.618244940265102"><ele>273.0</ele><time>2026-04-18T06:55:22Z</time></trkpt><trkpt lat="43.51131820931932" lon="10.618262834549206"><ele>273.0</ele><time>2026-04-18T06:55:23Z</time></trkpt><trkpt lat="43.51140902266144" lon="10.618283200804255"><ele>271.2</ele><time>2026-04-18T06:55:24Z</time></trkpt><trkpt lat="43.51149364564513" lon="10.61832446133937"><ele>269.4</ele><time>2026-04-18T06:55:25Z</time></trkpt><trkpt lat="43.5115932743456" lon="10.618350843854756"><ele>267.59999999999997</ele><time>2026-04-18T06:55:26Z</time></trkpt><trkpt lat="43.51169572432558" lon="10.618368146365256"><ele>265.8</ele><time>2026-04-18T06:55:27Z</time></trkpt><trkpt lat="43.51178876920548" lon="10.618426347498573"><ele>264.0</ele><time>2026-04-18T06:55:28Z</time></trkpt><trkpt lat="43.51188350933108" lon="10.61850103346792"><ele>264.0</ele><time>2026-04-18T06:55:29Z</time></trkpt><trkpt lat="43.51196752692465" lon="10.618586443857824"><ele>264.0</ele><time>2026-04-18T06:55:30Z</time></trkpt><trkpt lat="43.5120471167117" lon="10.618673990540861"><ele>264.0</ele><time>2026-04-18T06:55:31Z</time></trkpt><trkpt lat="43.512144797469084" lon="10.618764521325879"><ele>264.0</ele><time>2026-04-18T06:55:32Z</time></trkpt><trkpt lat="43.51224527546287" lon="10.618843610569717"><ele>264.0</ele><time>2026-04-18T06:55:33Z</time></trkpt><trkpt lat="43.51234424114445" lon="10.618903710590262"><ele>262.2</ele><time>2026-04-18T06:55:34Z</time></trkpt><trkpt lat="43.51244605250857" lon="10.618953860047785"><ele>260.4</ele><time>2026-04-18T06:55:35Z</time></trkpt><trkpt lat="43.51255080964428" lon="10.619003943834157"><ele>258.6</ele><time>2026-04-18T06:55:36Z</time></trkpt><trkpt lat="43.51265049253265" lon="10.619049356504137"><ele>256.8</ele><time>2026-04-18T06:55:37.001Z</time></trkpt><trkpt lat="43.5127429975038" lon="10.619094918059039"><ele>255.0</ele><time>2026-04-18T06:55:38.001Z</time></trkpt><trkpt lat="43.5128316739122" lon="10.619140453337286"><ele>253.2</ele><time>2026-04-18T06:55:39.001Z</time></trkpt><trkpt lat="43.512920646654784" lon="10.61918375650259"><ele>251.4</ele><time>2026-04-18T06:55:40.001Z</time></trkpt><trkpt lat="43.51300934277448" lon="10.619226839366204"><ele>249.60000000000002</ele><time>2026-04-18T06:55:41.001Z</time></trkpt><trkpt lat="43.51309572030197" lon="10.619268435629118"><ele>247.8</ele><time>2026-04-18T06:55:42.001Z</time></trkpt><trkpt lat="43.51318585179336" lon="10.619310462505924"><ele>246.0</ele><time>2026-04-18T06:55:43.001Z</time></trkpt><trkpt lat="43.51327707374057" lon="10.619356279074292"><ele>246.0</ele><time>2026-04-18T06:55:44.001Z</time></trkpt><trkpt lat="43.51336689912067" lon="10.619398948778953"><ele>246.0</ele><time>2026-04-18T06:55:45.001Z</time></trkpt><trkpt lat="43.513455117300516" lon="10.619438019153257"><ele>246.0</ele><time>2026-04-18T06:55:46.001Z</time></trkpt><trkpt lat="43.51354304901881" lon="10.619475513140738"><ele>246.0</ele><time>2026-04-18T06:55:47.001Z</time></trkpt><trkpt lat="43.51362335311632" lon="10.619514705398739"><ele>246.0</ele><time>2026-04-18T06:55:48.001Z</time></trkpt><trkpt lat="43.51369951754082" lon="10.619552547660856"><ele>246.0</ele><time>2026-04-18T06:55:49.001Z</time></trkpt><trkpt lat="43.513778563575464" lon="10.619587211627906"><ele>244.33333333333334</ele><time>2026-04-18T06:55:50.001Z</time></trkpt><trkpt lat="43.51385708722924" lon="10.619625315342617"><ele>242.66666666666669</ele><time>2026-04-18T06:55:51.001Z</time></trkpt><trkpt lat="43.513928598204856" lon="10.619663532590188"><ele>241.0</ele><time>2026-04-18T06:55:52.001Z</time></trkpt><trkpt lat="43.513991917901215" lon="10.61970064682186"><ele>239.33333333333334</ele><time>2026-04-18T06:55:53.001Z</time></trkpt><trkpt lat="43.514046724373365" lon="10.619763177948181"><ele>237.66666666666669</ele><time>2026-04-18T06:55:54.001Z</time></trkpt><trkpt lat="43.514090851189955" lon="10.619907688001913"><ele>236.0</ele><time>2026-04-18T06:55:56.001Z</time></trkpt><trkpt lat="43.514095604659374" lon="10.619998127659352"><ele>236.00000000000003</ele><time>2026-04-18T06:55:57.001Z</time></trkpt><trkpt lat="43.51408319689536" lon="10.620093987552279"><ele>236.0</ele><time>2026-04-18T06:55:58.001Z</time></trkpt><trkpt lat="43.5140349581175" lon="10.620192866290191"><ele>236.0</ele><time>2026-04-18T06:55:59.001Z</time></trkpt><trkpt lat="43.51399245561179" lon="10.620302110188925"><ele>236.0</ele><time>2026-04-18T06:56:00.001Z</time></trkpt><trkpt lat="43.51393706103358" lon="10.620408844611246"><ele>236.00000000000003</ele><time>2026-04-18T06:56:01.001Z</time></trkpt><trkpt lat="43.51386107724838" lon="10.620509596577389"><ele>236.0</ele><time>2026-04-18T06:56:02.001Z</time></trkpt><trkpt lat="43.5137995742976" lon="10.620625278671268"><ele>235.66666666666669</ele><time>2026-04-18T06:56:03.001Z</time></trkpt><trkpt lat="43.51373142578472" lon="10.620717322496315"><ele>235.33333333333334</ele><time>2026-04-18T06:56:04.001Z</time></trkpt><trkpt lat="43.51366818060133" lon="10.620797888020551"><ele>235.0</ele><time>2026-04-18T06:56:05.001Z</time></trkpt><trkpt lat="43.513607362705805" lon="10.620873696627244"><ele>234.66666666666669</ele><time>2026-04-18T06:56:06.001Z</time></trkpt><trkpt lat="43.5135509605472" lon="10.620944657352716"><ele>234.33333333333334</ele><time>2026-04-18T06:56:07.001Z</time></trkpt><trkpt lat="43.5134987231879" lon="10.621018514690586"><ele>234.0</ele><time>2026-04-18T06:56:08.001Z</time></trkpt><trkpt lat="43.51345058060766" lon="10.621105557752832"><ele>232.66666666666666</ele><time>2026-04-18T06:56:09.001Z</time></trkpt><trkpt lat="43.51343020050003" lon="10.62119243530586"><ele>231.33333333333331</ele><time>2026-04-18T06:56:10.001Z</time></trkpt><trkpt lat="43.51342772987022" lon="10.621301906639522"><ele>230.0</ele><time>2026-04-18T06:56:11.001Z</time></trkpt><trkpt lat="43.51344496960186" lon="10.621410853241658"><ele>228.66666666666666</ele><time>2026-04-18T06:56:12.001Z</time></trkpt><trkpt lat="43.513498994047154" lon="10.62150870200323"><ele>227.33333333333331</ele><time>2026-04-18T06:56:13.001Z</time></trkpt><trkpt lat="43.51358050902296" lon="10.62158176882481"><ele>226.0</ele><time>2026-04-18T06:56:14.001Z</time></trkpt><trkpt lat="43.51367650403846" lon="10.621625680176765"><ele>225.4</ele><time>2026-04-18T06:56:15.001Z</time></trkpt><trkpt lat="43.513778965367095" lon="10.621644309348328"><ele>224.8</ele><time>2026-04-18T06:56:16.001Z</time></trkpt><trkpt lat="43.51388386263321" lon="10.621656429240105"><ele>224.20000000000002</ele><time>2026-04-18T06:56:17.001Z</time></trkpt><trkpt lat="43.51398816726604" lon="10.621692056723344"><ele>223.60000000000002</ele><time>2026-04-18T06:56:18.001Z</time></trkpt><trkpt lat="43.51409934460519" lon="10.621747739896792"><ele>223.0</ele><time>2026-04-18T06:56:19.001Z</time></trkpt><trkpt lat="43.51420559843676" lon="10.621825640360646"><ele>223.0</ele><time>2026-04-18T06:56:20.001Z</time></trkpt><trkpt lat="43.51430933782163" lon="10.621908721882702"><ele>223.0</ele><time>2026-04-18T06:56:21.001Z</time></trkpt><trkpt lat="43.514406122832206" lon="10.621981704285094"><ele>223.0</ele><time>2026-04-18T06:56:22.001Z</time></trkpt><trkpt lat="43.51450716789226" lon="10.622042438861035"><ele>223.0</ele><time>2026-04-18T06:56:23.001Z</time></trkpt><trkpt lat="43.51460870763475" lon="10.62208825171085"><ele>223.0</ele><time>2026-04-18T06:56:24.001Z</time></trkpt><trkpt lat="43.51470601718202" lon="10.62212137839476"><ele>221.2</ele><time>2026-04-18T06:56:25.001Z</time></trkpt><trkpt lat="43.5148001318193" lon="10.62214851591128"><ele>219.4</ele><time>2026-04-18T06:56:26.001Z</time></trkpt><trkpt lat="43.51488966305876" lon="10.622170572793777"><ele>217.59999999999997</ele><time>2026-04-18T06:56:27.001Z</time></trkpt><trkpt lat="43.5149774575159" lon="10.622188877184904"><ele>215.79999999999998</ele><time>2026-04-18T06:56:28.001Z</time></trkpt><trkpt lat="43.515056858551276" lon="10.622206478844582"><ele>214.0</ele><time>2026-04-18T06:56:29.001Z</time></trkpt><trkpt lat="43.515160477411904" lon="10.622230527302996"><ele>214.0</ele><time>2026-04-18T06:56:31.001Z</time></trkpt><trkpt lat="43.51522382265329" lon="10.62224499467586"><ele>214.0</ele><time>2026-04-18T06:56:36.001Z</time></trkpt><trkpt lat="43.51522382265329" lon="10.62224499467586"><ele>214.0</ele><time>2026-04-18T06:56:36.001Z</time></trkpt><trkpt lat="43.51522382265329" lon="10.62224499467586"><ele>214.0</ele><time>2026-04-18T06:56:36.001Z</time></trkpt><trkpt lat="43.51522382265329" lon="10.62224499467586"><ele>214.0</ele><time>2026-04-18T06:56:36.001Z</time></trkpt><trkpt lat="43.51522382265329" lon="10.62224499467586"><ele>214.0</ele><time>2026-04-18T06:56:36.001Z</time></trkpt><trkpt lat="43.51522382265329" lon="10.62224499467586"><ele>214.0</ele><time>2026-04-18T06:56:36.001Z</time></trkpt><trkpt lat="43.51522382265329" lon="10.62224499467586"><ele>214.0</ele><time>2026-04-18T06:56:36.001Z</time></trkpt><trkpt lat="43.51522382265329" lon="10.62224499467586"><ele>214.0</ele><time>2026-04-18T06:56:36.001Z</time></trkpt><trkpt lat="43.51522382265329" lon="10.62224499467586"><ele>214.0</ele><time>2026-04-18T06:56:36.001Z</time></trkpt><trkpt lat="43.51522382265329" lon="10.62224499467586"><ele>214.0</ele><time>2026-04-18T06:56:36.001Z</time></trkpt><trkpt lat="43.51522382265329" lon="10.62224499467586"><ele>214.0</ele><time>2026-04-18T06:56:36.001Z</time></trkpt><trkpt lat="43.51522382265329" lon="10.62224499467586"><ele>214.0</ele><time>2026-04-18T06:56:36.001Z</time></trkpt><trkpt lat="43.51522382265329" lon="10.62224499467586"><ele>214.0</ele><time>2026-04-18T06:56:36.001Z</time></trkpt><trkpt lat="43.51522382265329" lon="10.62224499467586"><ele>214.0</ele><time>2026-04-18T06:56:36.001Z</time></trkpt><trkpt lat="43.51522382265329" lon="10.62224499467586"><ele>214.0</ele><time>2026-04-18T06:56:36.001Z</time></trkpt><trkpt lat="43.51522382265329" lon="10.62224499467586"><ele>214.0</ele><time>2026-04-18T06:56:36.001Z</time></trkpt><trkpt lat="43.51522382265329" lon="10.62224499467586"><ele>214.0</ele><time>2026-04-18T06:56:36.001Z</time></trkpt><trkpt lat="43.51522382265329" lon="10.62224499467586"><ele>214.0</ele><time>2026-04-18T06:56:36.001Z</time></trkpt></trkseg></trk></gpx>